Terminal Aerodrome Forecast
Issued by NWS Cleveland, OH

Home | Current Version | Previous Version | Graphics & Text | Print | Product List | Glossary On
Versions: 1 2 3 4 5 6 7 8 9 10 11 12 13 14 15 16 17 18
000
FTUS41 KCLE 242300
TAFERI
TAF
KERI 242330Z 2500/2524 23004KT P6SM SCT040
     FM250400 21007KT P6SM BKN035
     FM250900 21009KT P6SM BKN025
     FM251600 22014G20KT P6SM SCT025 BKN080
     FM251900 23015G22KT P6SM -SHRA BKN020 OVC040=

USA.gov is the U.S. government's official web portal to all federal, state and local government web resources and services.